Time;durP1;ratioP1;P1;durP2;ratioP2;P2;SDS_P1;SDS_P2;PMS_P1;PMS_P2;Temp;Humidity;BMP_temperature;BMP_pressure;BME280_temperature;BME280_humidity;BME280_pressure;Samples;Min_cycle;Max_cycle;Signal;HPM_P1;HPM_P2
2023/04/26 00:02:11;;;;;;;15.07;6.00;;;;;;;;;;5069565;28;20283;-59
2023/04/26 00:04:40;;;;;;;20.17;5.90;;;;;;;;;;5069154;28;20275;-59
2023/04/26 00:07:06;;;;;;;11.80;5.53;;;;;;;;;;5069112;28;20299;-59
2023/04/26 00:09:33;;;;;;;13.67;5.23;;;;;;;;;;5067664;28;20314;-59
2023/04/26 00:12:01;;;;;;;19.73;5.37;;;;;;;;;;5067646;28;20286;-59
2023/04/26 00:14:27;;;;;;;15.57;6.07;;;;;;;;;;5068713;28;20279;-59
2023/04/26 00:16:53;;;;;;;17.43;5.80;;;;;;;;;;5066056;28;20827;-59
2023/04/26 00:19:20;;;;;;;22.40;6.40;;;;;;;;;;5068861;28;20321;-59
2023/04/26 00:21:46;;;;;;;19.63;5.80;;;;;;;;;;5064317;28;20301;-59
2023/04/26 00:24:12;;;;;;;16.57;5.60;;;;;;;;;;5068454;28;21130;-59
2023/04/26 00:26:38;;;;;;;18.30;5.40;;;;;;;;;;5068781;28;20784;-59
2023/04/26 00:29:04;;;;;;;15.27;6.17;;;;;;;;;;5067956;28;20306;-59
2023/04/26 00:31:30;;;;;;;9.83;4.67;;;;;;;;;;5066948;28;20059;-59
2023/04/26 00:33:57;;;;;;;13.70;4.47;;;;;;;;;;5067722;28;20303;-59
2023/04/26 00:36:23;;;;;;;8.47;4.33;;;;;;;;;;5068393;28;20289;-59
2023/04/26 00:38:49;;;;;;;17.47;5.10;;;;;;;;;;5066982;28;20302;-60
2023/04/26 00:41:15;;;;;;;13.23;4.83;;;;;;;;;;5068388;28;20045;-59
2023/04/26 00:43:41;;;;;;;16.37;5.67;;;;;;;;;;5068486;28;20056;-59
2023/04/26 00:46:08;;;;;;;14.20;5.20;;;;;;;;;;5054355;28;20073;-59
2023/04/26 00:48:36;;;;;;;15.27;5.27;;;;;;;;;;5047535;28;20071;-59
2023/04/26 00:51:02;;;;;;;17.70;5.07;;;;;;;;;;5048665;28;20286;-60
2023/04/26 00:53:29;;;;;;;10.27;4.47;;;;;;;;;;5048324;28;20033;-59
2023/04/26 00:55:56;;;;;;;12.97;4.77;;;;;;;;;;5048191;28;20091;-59
2023/04/26 00:58:22;;;;;;;14.80;4.70;;;;;;;;;;5061117;28;20040;-59
2023/04/26 01:00:49;;;;;;;10.03;4.10;;;;;;;;;;5068489;28;20044;-59
2023/04/26 01:03:16;;;;;;;9.23;3.87;;;;;;;;;;5068012;28;20060;-62
2023/04/26 01:05:42;;;;;;;8.50;4.17;;;;;;;;;;5068320;28;20045;-59
2023/04/26 01:08:08;;;;;;;12.07;4.20;;;;;;;;;;5049270;28;20056;-59
2023/04/26 01:10:35;;;;;;;18.27;5.13;;;;;;;;;;5048231;28;20165;-59
2023/04/26 01:13:04;;;;;;;17.07;4.63;;;;;;;;;;5047771;28;20125;-59
2023/04/26 01:15:32;;;;;;;9.93;4.07;;;;;;;;;;5048223;28;20092;-60
2023/04/26 01:17:58;;;;;;;9.97;4.10;;;;;;;;;;5048197;28;20130;-59
2023/04/26 01:20:25;;;;;;;16.53;3.70;;;;;;;;;;5065184;28;20048;-59
2023/04/26 01:22:51;;;;;;;12.63;3.70;;;;;;;;;;5067466;28;20051;-59
2023/04/26 01:25:19;;;;;;;14.53;4.03;;;;;;;;;;5068336;28;20044;-59
2023/04/26 01:27:45;;;;;;;13.90;4.20;;;;;;;;;;5068041;28;20525;-59
2023/04/26 01:30:11;;;;;;;12.23;3.70;;;;;;;;;;5067917;28;20099;-59
2023/04/26 01:32:38;;;;;;;15.47;5.40;;;;;;;;;;5066835;28;20418;-59
2023/04/26 01:35:04;;;;;;;8.77;4.03;;;;;;;;;;5066806;28;20044;-59
2023/04/26 01:37:30;;;;;;;8.80;3.73;;;;;;;;;;5067122;28;20480;-59
2023/04/26 01:39:56;;;;;;;10.33;3.33;;;;;;;;;;5067633;28;20049;-59
2023/04/26 01:42:22;;;;;;;13.17;4.00;;;;;;;;;;5069061;28;20059;-59
2023/04/26 01:44:48;;;;;;;9.83;3.90;;;;;;;;;;5052327;28;20361;-58
2023/04/26 01:47:14;;;;;;;16.53;4.70;;;;;;;;;;5051643;28;20307;-59
2023/04/26 01:49:41;;;;;;;13.40;3.53;;;;;;;;;;5064837;28;20048;-59
2023/04/26 01:52:07;;;;;;;12.40;4.00;;;;;;;;;;5071591;28;20036;-58
2023/04/26 01:54:33;;;;;;;12.87;3.93;;;;;;;;;;5070598;28;20287;-58
2023/04/26 01:56:59;;;;;;;14.13;4.73;;;;;;;;;;5069689;28;20634;-59
2023/04/26 01:59:25;;;;;;;13.23;4.37;;;;;;;;;;5058788;28;20098;-59
2023/04/26 02:01:51;;;;;;;9.73;4.17;;;;;;;;;;5071187;28;20369;-59
2023/04/26 02:04:17;;;;;;;9.33;3.73;;;;;;;;;;5069856;28;20139;-59
2023/04/26 02:06:43;;;;;;;23.20;5.97;;;;;;;;;;5071175;28;20040;-59
2023/04/26 02:09:10;;;;;;;10.17;3.70;;;;;;;;;;5070340;28;20314;-59
2023/04/26 02:11:36;;;;;;;10.00;4.07;;;;;;;;;;5071157;28;20287;-59
2023/04/26 02:14:02;;;;;;;8.60;3.40;;;;;;;;;;5070691;28;20665;-59
2023/04/26 02:16:28;;;;;;;13.30;4.13;;;;;;;;;;5071302;28;20773;-58
2023/04/26 02:18:54;;;;;;;15.23;4.37;;;;;;;;;;5063099;28;20295;-59
2023/04/26 02:21:20;;;;;;;12.57;3.97;;;;;;;;;;5057840;28;20049;-59
2023/04/26 02:23:47;;;;;;;13.77;4.93;;;;;;;;;;5050785;28;20764;-60
2023/04/26 02:26:13;;;;;;;14.17;4.50;;;;;;;;;;5050981;28;20284;-59
2023/04/26 02:28:40;;;;;;;13.13;3.53;;;;;;;;;;5050751;28;20323;-58
2023/04/26 02:31:06;;;;;;;15.47;4.23;;;;;;;;;;5051992;28;20275;-59
2023/04/26 02:33:33;;;;;;;16.87;5.97;;;;;;;;;;5070726;28;20347;-59
2023/04/26 02:35:59;;;;;;;10.10;4.23;;;;;;;;;;5070355;28;20784;-58
2023/04/26 02:38:25;;;;;;;13.07;3.77;;;;;;;;;;5070368;28;20974;-59
2023/04/26 02:40:58;;;;;;;8.70;3.80;;;;;;;;;;5070916;28;20344;-59
2023/04/26 02:43:24;;;;;;;15.70;6.23;;;;;;;;;;5068532;28;20337;-58
2023/04/26 02:45:50;;;;;;;14.50;4.80;;;;;;;;;;5063488;28;20079;-59
2023/04/26 02:48:16;;;;;;;10.73;4.70;;;;;;;;;;5050064;28;20361;-59
2023/04/26 02:50:42;;;;;;;10.43;5.37;;;;;;;;;;5050317;28;20063;-59
2023/04/26 02:53:08;;;;;;;12.57;5.03;;;;;;;;;;5049656;28;20283;-59
2023/04/26 02:55:34;;;;;;;11.47;4.53;;;;;;;;;;5051390;28;20421;-59
2023/04/26 02:58:00;;;;;;;9.07;4.13;;;;;;;;;;5069742;28;20827;-59
2023/04/26 03:00:27;;;;;;;15.10;4.83;;;;;;;;;;5070206;28;20669;-58
2023/04/26 03:02:53;;;;;;;11.63;4.07;;;;;;;;;;5070404;28;20380;-59
2023/04/26 03:05:19;;;;;;;14.27;5.47;;;;;;;;;;5070217;28;20351;-59
2023/04/26 03:07:45;;;;;;;14.70;4.77;;;;;;;;;;5068735;28;20384;-59
2023/04/26 03:10:12;;;;;;;9.53;4.40;;;;;;;;;;5070328;28;20283;-60
2023/04/26 03:12:38;;;;;;;13.63;4.60;;;;;;;;;;5069998;28;20340;-59
2023/04/26 03:15:04;;;;;;;10.10;4.57;;;;;;;;;;5069979;28;20295;-59
2023/04/26 03:17:30;;;;;;;12.10;4.50;;;;;;;;;;5069829;28;20287;-59
2023/04/26 03:19:56;;;;;;;13.90;5.07;;;;;;;;;;5067212;28;20360;-59
2023/04/26 03:22:22;;;;;;;12.87;5.30;;;;;;;;;;5069600;28;20631;-59
2023/04/26 03:24:48;;;;;;;12.07;5.10;;;;;;;;;;5069577;28;20768;-59
2023/04/26 03:27:15;;;;;;;17.70;5.20;;;;;;;;;;5069727;28;20346;-59
2023/04/26 03:29:41;;;;;;;18.67;5.93;;;;;;;;;;5069320;28;20302;-59
2023/04/26 03:32:07;;;;;;;13.23;4.97;;;;;;;;;;5067971;28;20286;-59
2023/04/26 03:34:33;;;;;;;9.10;4.57;;;;;;;;;;5048358;28;20777;-59
2023/04/26 03:36:59;;;;;;;12.13;5.13;;;;;;;;;;5049692;28;20287;-59
2023/04/26 03:39:25;;;;;;;11.53;4.93;;;;;;;;;;5049289;28;20298;-60
2023/04/26 03:41:51;;;;;;;17.07;5.47;;;;;;;;;;5049739;28;20279;-59
2023/04/26 03:44:17;;;;;;;15.17;4.40;;;;;;;;;;5049736;28;20311;-59
2023/04/26 03:46:43;;;;;;;12.27;5.20;;;;;;;;;;5058105;28;20381;-60
2023/04/26 03:49:09;;;;;;;15.30;5.13;;;;;;;;;;5054024;28;20381;-59
2023/04/26 03:51:36;;;;;;;16.07;4.80;;;;;;;;;;5049298;28;20056;-59
2023/04/26 03:54:02;;;;;;;10.43;4.60;;;;;;;;;;5049304;28;20053;-59
2023/04/26 03:56:28;;;;;;;11.00;4.83;;;;;;;;;;5048343;28;20723;-59
2023/04/26 03:58:54;;;;;;;16.33;5.43;;;;;;;;;;5049041;28;20099;-59
2023/04/26 04:01:20;;;;;;;20.20;5.73;;;;;;;;;;5049304;28;20068;-59
2023/04/26 04:03:46;;;;;;;11.20;5.03;;;;;;;;;;5049040;28;20302;-59
2023/04/26 04:06:12;;;;;;;11.70;4.67;;;;;;;;;;5048390;28;20311;-60
2023/04/26 04:08:38;;;;;;;9.97;4.97;;;;;;;;;;5049074;28;20053;-59
2023/04/26 04:11:05;;;;;;;11.70;5.10;;;;;;;;;;5048561;28;20476;-59
2023/04/26 04:13:31;;;;;;;11.50;4.80;;;;;;;;;;5048916;28;20048;-59
2023/04/26 04:15:57;;;;;;;12.63;5.03;;;;;;;;;;5048751;28;20419;-59
2023/04/26 04:18:23;;;;;;;13.80;4.20;;;;;;;;;;5048854;28;20284;-59
2023/04/26 04:20:49;;;;;;;10.47;4.97;;;;;;;;;;5048912;28;20045;-59
2023/04/26 04:23:15;;;;;;;8.40;4.93;;;;;;;;;;5055697;28;20075;-59
2023/04/26 04:25:42;;;;;;;14.60;5.17;;;;;;;;;;5067976;28;20290;-59
2023/04/26 04:28:10;;;;;;;16.80;5.03;;;;;;;;;;5068228;28;20307;-59
2023/04/26 04:30:36;;;;;;;10.97;5.13;;;;;;;;;;5068616;28;20045;-59
2023/04/26 04:33:03;;;;;;;12.03;5.10;;;;;;;;;;5067454;28;20045;-59
2023/04/26 04:35:32;;;;;;;18.20;5.23;;;;;;;;;;5068523;28;20537;-59
2023/04/26 04:37:58;;;;;;;13.20;5.40;;;;;;;;;;5068257;28;21160;-59
2023/04/26 04:40:25;;;;;;;13.37;5.47;;;;;;;;;;5058534;28;20360;-59
2023/04/26 04:42:52;;;;;;;15.57;5.77;;;;;;;;;;5048292;28;20333;-59
2023/04/26 04:45:19;;;;;;;13.00;5.47;;;;;;;;;;5047841;28;20295;-59
2023/04/26 04:47:46;;;;;;;15.27;6.43;;;;;;;;;;5048230;28;20320;-59
2023/04/26 04:50:13;;;;;;;16.03;5.37;;;;;;;;;;5048262;28;20290;-59
2023/04/26 04:52:39;;;;;;;11.90;5.57;;;;;;;;;;5048177;28;20049;-59
2023/04/26 04:55:06;;;;;;;12.67;5.30;;;;;;;;;;5048131;28;20299;-59
2023/04/26 04:57:32;;;;;;;11.50;5.67;;;;;;;;;;5047727;28;20353;-59
2023/04/26 05:00:02;;;;;;;14.40;5.40;;;;;;;;;;5048106;28;20819;-59
2023/04/26 05:02:29;;;;;;;13.73;5.97;;;;;;;;;;5048375;28;20366;-59
2023/04/26 05:04:56;;;;;;;14.57;5.07;;;;;;;;;;5048488;28;20045;-60
2023/04/26 05:07:22;;;;;;;20.63;6.53;;;;;;;;;;5047578;28;20812;-60
2023/04/26 05:09:48;;;;;;;15.67;5.77;;;;;;;;;;5048232;28;20361;-60
2023/04/26 05:12:14;;;;;;;18.93;6.80;;;;;;;;;;5048455;28;20298;-60
2023/04/26 05:14:40;;;;;;;15.80;5.60;;;;;;;;;;5048267;28;20811;-60
2023/04/26 05:17:06;;;;;;;14.53;5.90;;;;;;;;;;5062422;28;20763;-59
2023/04/26 05:19:32;;;;;;;16.87;6.53;;;;;;;;;;5071652;28;20408;-59
2023/04/26 05:21:58;;;;;;;16.60;6.07;;;;;;;;;;5071565;28;20645;-59
2023/04/26 05:24:24;;;;;;;10.33;4.97;;;;;;;;;;5071911;28;20055;-59
2023/04/26 05:26:50;;;;;;;17.97;5.30;;;;;;;;;;5071798;28;20094;-59
2023/04/26 05:29:16;;;;;;;15.73;5.77;;;;;;;;;;5071014;28;20071;-59
2023/04/26 05:31:42;;;;;;;13.30;5.87;;;;;;;;;;5061919;28;20303;-60
2023/04/26 05:34:08;;;;;;;19.00;5.80;;;;;;;;;;5057770;28;20041;-60
2023/04/26 05:36:35;;;;;;;12.07;5.03;;;;;;;;;;5058976;28;20041;-60
2023/04/26 05:39:01;;;;;;;11.17;5.07;;;;;;;;;;5061291;28;20072;-59
2023/04/26 05:41:27;;;;;;;11.43;5.17;;;;;;;;;;5062499;28;20422;-59
2023/04/26 05:43:53;;;;;;;12.83;5.93;;;;;;;;;;5058072;28;20040;-59
2023/04/26 05:46:19;;;;;;;8.70;4.90;;;;;;;;;;5062495;28;20399;-60
2023/04/26 05:48:45;;;;;;;13.30;4.87;;;;;;;;;;5053613;28;20041;-59
2023/04/26 05:51:11;;;;;;;13.80;4.87;;;;;;;;;;5051158;28;20487;-61
2023/04/26 05:53:37;;;;;;;14.87;5.03;;;;;;;;;;5050501;28;20106;-59
2023/04/26 05:56:03;;;;;;;13.23;4.70;;;;;;;;;;5050846;28;20055;-60
2023/04/26 05:58:29;;;;;;;9.60;4.53;;;;;;;;;;5050982;28;20045;-60
2023/04/26 06:00:56;;;;;;;8.70;4.53;;;;;;;;;;5050742;28;20479;-60
2023/04/26 06:03:23;;;;;;;11.40;5.13;;;;;;;;;;5051151;28;20182;-60
2023/04/26 06:05:49;;;;;;;10.37;4.00;;;;;;;;;;5050613;28;20080;-60
2023/04/26 06:08:15;;;;;;;11.80;4.10;;;;;;;;;;5069817;28;20546;-60
2023/04/26 06:10:41;;;;;;;10.40;4.13;;;;;;;;;;5059774;28;20056;-60
2023/04/26 06:13:07;;;;;;;8.97;3.80;;;;;;;;;;5050879;28;20041;-59
2023/04/26 06:15:33;;;;;;;8.40;3.13;;;;;;;;;;5050098;28;20462;-59
2023/04/26 06:17:59;;;;;;;8.00;3.50;;;;;;;;;;5050666;28;20491;-59
2023/04/26 06:20:26;;;;;;;5.93;3.23;;;;;;;;;;5050797;28;20052;-59
2023/04/26 06:22:53;;;;;;;9.00;3.40;;;;;;;;;;5050628;28;20433;-59
2023/04/26 06:25:19;;;;;;;10.60;3.30;;;;;;;;;;5054153;28;20486;-59
2023/04/26 06:27:45;;;;;;;12.60;3.67;;;;;;;;;;5065668;28;20142;-60
2023/04/26 06:30:11;;;;;;;7.73;4.60;;;;;;;;;;5056729;28;20537;-59
2023/04/26 06:32:38;;;;;;;10.83;3.53;;;;;;;;;;5049871;28;20763;-59
2023/04/26 06:35:04;;;;;;;9.40;3.07;;;;;;;;;;5050052;28;20196;-59
2023/04/26 06:37:30;;;;;;;9.60;3.13;;;;;;;;;;5059799;28;20048;-59
2023/04/26 06:39:56;;;;;;;9.93;3.20;;;;;;;;;;5069908;28;20041;-60
2023/04/26 06:42:22;;;;;;;12.17;3.20;;;;;;;;;;5070038;28;20094;-60
2023/04/26 06:44:48;;;;;;;6.17;2.40;;;;;;;;;;5070118;28;20086;-59
2023/04/26 06:47:14;;;;;;;4.83;2.50;;;;;;;;;;5069523;28;20049;-59
2023/04/26 06:49:41;;;;;;;6.20;3.47;;;;;;;;;;5069929;28;20049;-60
2023/04/26 06:52:07;;;;;;;5.80;2.60;;;;;;;;;;5069791;28;20140;-59
2023/04/26 06:54:33;;;;;;;8.30;2.77;;;;;;;;;;5069061;28;20048;-60
2023/04/26 06:56:59;;;;;;;9.27;2.93;;;;;;;;;;5069727;28;20119;-59
2023/04/26 06:59:25;;;;;;;11.23;2.70;;;;;;;;;;5066739;28;20131;-59
2023/04/26 07:01:52;;;;;;;4.90;2.53;;;;;;;;;;5069764;28;20485;-60
2023/04/26 07:04:19;;;;;;;9.03;2.33;;;;;;;;;;5069063;28;20486;-59
2023/04/26 07:06:45;;;;;;;8.63;2.80;;;;;;;;;;5069564;28;20052;-59
2023/04/26 07:09:12;;;;;;;5.00;1.90;;;;;;;;;;5066864;28;20592;-59
2023/04/26 07:11:38;;;;;;;4.87;1.93;;;;;;;;;;5067488;28;20076;-59
2023/04/26 07:14:04;;;;;;;6.67;2.20;;;;;;;;;;5054665;28;20048;-59
2023/04/26 07:16:30;;;;;;;5.30;1.77;;;;;;;;;;5049100;28;20053;-59
2023/04/26 07:18:57;;;;;;;6.37;1.80;;;;;;;;;;5048868;28;20049;-60
2023/04/26 07:21:26;;;;;;;4.43;1.80;;;;;;;;;;5049111;28;20513;-60
2023/04/26 07:23:53;;;;;;;5.80;1.70;;;;;;;;;;5048705;28;20489;-60
2023/04/26 07:26:19;;;;;;;6.47;1.50;;;;;;;;;;5048628;28;20045;-60
2023/04/26 07:28:45;;;;;;;7.83;1.70;;;;;;;;;;5063893;28;20052;-60
2023/04/26 07:31:12;;;;;;;4.07;1.23;;;;;;;;;;5068936;28;20132;-59
2023/04/26 07:33:38;;;;;;;8.17;1.80;;;;;;;;;;5061416;28;20056;-60
2023/04/26 07:36:04;;;;;;;6.80;1.97;;;;;;;;;;5068659;28;20048;-60
2023/04/26 07:38:31;;;;;;;10.63;2.27;;;;;;;;;;5064763;28;20041;-60
2023/04/26 07:41:00;;;;;;;9.03;1.90;;;;;;;;;;5067479;28;20051;-60
2023/04/26 07:43:26;;;;;;;3.90;1.60;;;;;;;;;;5076271;28;20059;-60
2023/04/26 07:45:52;;;;;;;6.30;1.73;;;;;;;;;;5085170;28;20036;-61
2023/04/26 07:48:18;;;;;;;7.20;1.73;;;;;;;;;;5064283;28;20406;-59
2023/04/26 07:50:44;;;;;;;7.20;1.93;;;;;;;;;;5066227;28;20094;-59
2023/04/26 07:53:10;;;;;;;9.57;1.93;;;;;;;;;;5060399;28;20053;-60
2023/04/26 07:55:36;;;;;;;7.13;1.87;;;;;;;;;;5052580;28;20124;-58
2023/04/26 07:58:03;;;;;;;7.20;2.07;;;;;;;;;;5058179;28;20045;-58
2023/04/26 08:00:29;;;;;;;4.47;1.60;;;;;;;;;;5067892;28;20540;-59
2023/04/26 08:02:56;;;;;;;10.67;2.00;;;;;;;;;;5069133;28;20482;-58
2023/04/26 08:05:22;;;;;;;5.23;1.63;;;;;;;;;;5065491;28;20819;-59
2023/04/26 08:07:48;;;;;;;6.37;2.00;;;;;;;;;;5059972;28;20036;-59
2023/04/26 08:10:14;;;;;;;9.27;2.00;;;;;;;;;;5060107;28;20049;-59
2023/04/26 08:12:40;;;;;;;8.13;1.90;;;;;;;;;;5063927;28;20048;-59
2023/04/26 08:15:07;;;;;;;8.17;2.37;;;;;;;;;;5066962;28;20117;-59
2023/04/26 08:17:33;;;;;;;8.57;2.60;;;;;;;;;;5067942;28;20120;-60
2023/04/26 08:19:59;;;;;;;10.57;3.00;;;;;;;;;;5067643;28;20052;-59
2023/04/26 08:22:26;;;;;;;14.30;3.23;;;;;;;;;;5067742;28;20047;-59
2023/04/26 08:24:54;;;;;;;10.27;3.80;;;;;;;;;;5067405;28;20049;-60
2023/04/26 08:27:20;;;;;;;14.00;3.70;;;;;;;;;;5067927;28;20090;-59
2023/04/26 08:29:47;;;;;;;9.10;2.57;;;;;;;;;;5066020;28;20563;-59
2023/04/26 08:32:13;;;;;;;8.40;2.43;;;;;;;;;;5067827;28;20040;-59
2023/04/26 08:34:39;;;;;;;6.60;2.30;;;;;;;;;;5067175;28;20055;-59
2023/04/26 08:37:09;;;;;;;6.97;2.83;;;;;;;;;;5066194;28;20180;-59
2023/04/26 08:39:35;;;;;;;9.30;2.23;;;;;;;;;;5067540;28;20090;-59
2023/04/26 08:42:07;;;;;;;7.57;2.00;;;;;;;;;;5067707;28;20045;-59
2023/04/26 08:44:35;;;;;;;6.20;2.07;;;;;;;;;;5066470;28;20422;-59
2023/04/26 08:47:10;;;;;;;10.37;1.80;;;;;;;;;;5046973;28;20049;-60
2023/04/26 08:49:42;;;;;;;7.23;1.70;;;;;;;;;;5046811;28;20053;-60
2023/04/26 08:52:13;;;;;;;8.50;1.90;;;;;;;;;;5051162;28;20044;-60
2023/04/26 08:54:39;;;;;;;7.37;1.80;;;;;;;;;;5053547;28;20319;-59
2023/04/26 08:57:06;;;;;;;7.00;1.70;;;;;;;;;;5052453;28;20574;-60
2023/04/26 08:59:36;;;;;;;4.83;1.33;;;;;;;;;;5053933;28;20084;-60
2023/04/26 09:02:04;;;;;;;7.10;2.00;;;;;;;;;;5055493;28;20052;-60
2023/04/26 09:04:30;;;;;;;7.00;1.80;;;;;;;;;;5058267;28;20040;-60
2023/04/26 09:06:59;;;;;;;7.03;1.50;;;;;;;;;;5074833;28;20087;-60
2023/04/26 09:09:27;;;;;;;4.90;1.63;;;;;;;;;;5073578;28;20410;-60
2023/04/26 09:11:56;;;;;;;7.10;2.20;;;;;;;;;;5074764;28;20418;-60
2023/04/26 09:14:23;;;;;;;6.17;1.60;;;;;;;;;;5074885;28;20524;-61
2023/04/26 09:16:49;;;;;;;6.87;2.33;;;;;;;;;;5074487;28;20040;-60
2023/04/26 09:19:15;;;;;;;8.37;1.63;;;;;;;;;;5069620;28;20075;-60
2023/04/26 09:21:46;;;;;;;7.47;2.73;;;;;;;;;;5054366;28;20059;-60
2023/04/26 09:24:12;;;;;;;5.77;1.60;;;;;;;;;;5054626;28;20069;-60
2023/04/26 09:26:39;;;;;;;6.43;1.57;;;;;;;;;;5054893;28;20049;-60
2023/04/26 09:29:15;;;;;;;6.13;1.77;;;;;;;;;;5054392;28;20069;-60
2023/04/26 09:31:46;;;;;;;10.87;1.80;;;;;;;;;;5054176;28;20135;-60
2023/04/26 09:34:12;;;;;;;5.67;1.50;;;;;;;;;;5054046;28;20044;-60
2023/04/26 09:36:59;;;;;;;4.90;1.50;;;;;;;;;;5055106;28;20041;-60
2023/04/26 09:39:32;;;;;;;4.47;1.40;;;;;;;;;;5054505;28;20045;-60
2023/04/26 09:42:00;;;;;;;5.37;1.67;;;;;;;;;;5054161;28;20080;-60
2023/04/26 09:44:26;;;;;;;4.33;1.20;;;;;;;;;;5054668;28;20055;-60
2023/04/26 09:46:58;;;;;;;4.63;1.93;;;;;;;;;;5054514;28;20048;-61
2023/04/26 09:49:32;;;;;;;5.00;1.50;;;;;;;;;;5054226;28;20075;-61
2023/04/26 09:52:05;;;;;;;5.87;1.67;;;;;;;;;;5054386;28;20045;-61
2023/04/26 09:54:42;;;;;;;6.13;1.50;;;;;;;;;;5066229;28;20474;-60
2023/04/26 09:57:08;;;;;;;6.07;1.70;;;;;;;;;;5074071;28;20182;-61
2023/04/26 09:59:45;;;;;;;4.67;1.47;;;;;;;;;;5074108;28;20084;-61
2023/04/26 10:02:15;;;;;;;6.83;1.23;;;;;;;;;;5067743;28;20056;-60
2023/04/26 10:04:44;;;;;;;4.07;1.23;;;;;;;;;;5053417;28;20048;-61
2023/04/26 10:07:11;;;;;;;5.20;1.27;;;;;;;;;;5050937;28;20045;-61
2023/04/26 10:09:37;;;;;;;3.17;0.67;;;;;;;;;;5050685;28;20049;-61
2023/04/26 10:12:04;;;;;;;6.40;1.20;;;;;;;;;;5050253;28;20049;-61
2023/04/26 10:14:30;;;;;;;3.70;1.23;;;;;;;;;;5052477;28;20082;-61
2023/04/26 10:16:57;;;;;;;6.13;1.50;;;;;;;;;;5055409;28;20559;-61
2023/04/26 10:19:25;;;;;;;5.40;1.93;;;;;;;;;;5068240;28;20044;-60
2023/04/26 10:21:53;;;;;;;4.67;1.60;;;;;;;;;;5071044;28;20129;-61
2023/04/26 10:24:19;;;;;;;7.10;1.80;;;;;;;;;;5069654;28;20558;-60
2023/04/26 10:26:58;;;;;;;7.13;1.50;;;;;;;;;;5068763;28;20627;-60
2023/04/26 10:29:26;;;;;;;3.47;1.27;;;;;;;;;;5061610;28;20112;-60
2023/04/26 10:32:01;;;;;;;7.80;1.70;;;;;;;;;;5068964;28;20098;-61
2023/04/26 10:34:29;;;;;;;4.23;1.80;;;;;;;;;;5063592;28;20402;-61
2023/04/26 10:37:11;;;;;;;5.63;1.70;;;;;;;;;;5058862;28;20044;-61
2023/04/26 10:39:38;;;;;;;6.33;2.10;;;;;;;;;;5068669;28;20163;-60
2023/04/26 10:42:24;;;;;;;5.53;1.70;;;;;;;;;;5069972;28;20045;-60
2023/04/26 10:45:01;;;;;;;2.53;1.20;;;;;;;;;;5066119;28;20045;-60
2023/04/26 10:47:35;;;;;;;7.23;1.70;;;;;;;;;;5068433;28;20123;-60
2023/04/26 10:50:03;;;;;;;6.87;1.80;;;;;;;;;;5070039;28;20056;-61
2023/04/26 10:52:29;;;;;;;9.00;2.10;;;;;;;;;;5069173;28;20058;-61
2023/04/26 10:54:56;;;;;;;5.23;1.80;;;;;;;;;;5069452;28;20048;-60
2023/04/26 10:57:23;;;;;;;5.57;1.73;;;;;;;;;;5066850;28;20047;-61
2023/04/26 11:00:09;;;;;;;6.43;1.77;;;;;;;;;;5070562;28;20044;-61
2023/04/26 11:03:05;;;;;;;7.13;1.90;;;;;;;;;;5056236;28;20127;-60
2023/04/26 11:05:36;;;;;;;5.77;1.63;;;;;;;;;;5065111;28;20139;-60
2023/04/26 11:08:15;;;;;;;5.63;1.87;;;;;;;;;;5068385;28;20494;-60
2023/04/26 11:10:41;;;;;;;6.50;1.83;;;;;;;;;;5057113;28;20106;-61
2023/04/26 11:13:07;;;;;;;7.03;1.73;;;;;;;;;;5054192;28;20048;-62
2023/04/26 11:15:33;;;;;;;5.97;1.57;;;;;;;;;;5054909;28;20094;-60
2023/04/26 11:18:09;;;;;;;5.03;1.70;;;;;;;;;;5057504;28;20055;-60
2023/04/26 11:20:35;;;;;;;4.20;1.50;;;;;;;;;;5054728;28;20057;-61
2023/04/26 11:23:01;;;;;;;5.33;1.77;;;;;;;;;;5060900;28;20041;-61
2023/04/26 11:25:28;;;;;;;7.13;2.10;;;;;;;;;;5063731;28;20054;-60
2023/04/26 11:28:01;;;;;;;9.67;2.30;;;;;;;;;;5066857;28;20052;-60
2023/04/26 11:30:33;;;;;;;4.82;1.80;;;;;;;;;;5065550;28;20079;-61
2023/04/26 11:33:00;;;;;;;5.83;1.80;;;;;;;;;;5059319;28;20044;-60
2023/04/26 11:35:28;;;;;;;4.00;1.47;;;;;;;;;;5068464;28;20154;-61
2023/04/26 11:37:57;;;;;;;5.90;1.77;;;;;;;;;;5066288;28;20086;-61
2023/04/26 11:40:23;;;;;;;5.17;1.40;;;;;;;;;;5069132;28;20049;-61
2023/04/26 11:42:49;;;;;;;5.70;1.60;;;;;;;;;;5052439;28;20052;-61
2023/04/26 11:45:16;;;;;;;6.97;1.60;;;;;;;;;;5060207;28;20052;-60
2023/04/26 11:47:43;;;;;;;9.47;2.20;;;;;;;;;;5068025;28;20044;-61
2023/04/26 11:50:09;;;;;;;6.20;1.50;;;;;;;;;;5067003;28;20045;-61
2023/04/26 11:52:35;;;;;;;6.33;1.70;;;;;;;;;;5054930;28;20414;-61
2023/04/26 11:55:02;;;;;;;8.37;2.60;;;;;;;;;;5062087;28;20131;-61
2023/04/26 11:57:31;;;;;;;4.23;1.23;;;;;;;;;;5057905;28;20159;-61
2023/04/26 12:00:24;;;;;;;8.33;1.90;;;;;;;;;;5064072;28;20056;-61
2023/04/26 12:02:51;;;;;;;3.83;1.10;;;;;;;;;;5064768;28;20044;-61
2023/04/26 12:05:35;;;;;;;7.57;1.43;;;;;;;;;;5066871;28;20176;-61
2023/04/26 12:08:01;;;;;;;7.37;1.63;;;;;;;;;;5067209;28;20051;-61
2023/04/26 12:10:28;;;;;;;5.47;2.07;;;;;;;;;;5056103;28;20143;-61
2023/04/26 12:12:55;;;;;;;3.77;1.60;;;;;;;;;;5066969;28;20044;-61
2023/04/26 12:15:33;;;;;;;9.23;2.37;;;;;;;;;;5066132;28;20072;-61
2023/04/26 12:18:05;;;;;;;5.43;1.70;;;;;;;;;;5067018;28;20612;-61
2023/04/26 12:20:38;;;;;;;6.33;1.63;;;;;;;;;;5067832;28;20048;-60
2023/04/26 12:23:06;;;;;;;6.13;1.70;;;;;;;;;;5067585;28;20286;-61
2023/04/26 12:25:34;;;;;;;8.60;2.63;;;;;;;;;;5068090;28;20044;-60
2023/04/26 12:28:00;;;;;;;5.13;1.87;;;;;;;;;;5065017;28;20135;-62
2023/04/26 12:30:27;;;;;;;5.53;1.73;;;;;;;;;;5058045;28;20061;-61
2023/04/26 12:32:53;;;;;;;7.33;1.60;;;;;;;;;;5058287;28;20049;-61
2023/04/26 12:35:20;;;;;;;7.47;1.53;;;;;;;;;;5058492;28;20179;-60
2023/04/26 12:37:46;;;;;;;7.97;1.53;;;;;;;;;;5065719;28;20528;-60
2023/04/26 12:40:13;;;;;;;5.47;2.30;;;;;;;;;;5060068;28;20044;-60
2023/04/26 12:42:39;;;;;;;7.00;2.10;;;;;;;;;;5049461;28;20137;-62
2023/04/26 12:45:08;;;;;;;5.67;1.80;;;;;;;;;;5050991;28;20053;-61
2023/04/26 12:47:34;;;;;;;3.97;1.70;;;;;;;;;;5055501;28;20152;-62
2023/04/26 12:50:01;;;;;;;6.73;2.30;;;;;;;;;;5058875;28;20509;-59
2023/04/26 12:52:27;;;;;;;7.87;2.20;;;;;;;;;;5068058;28;20044;-59
2023/04/26 12:54:53;;;;;;;6.50;1.70;;;;;;;;;;5064165;28;20055;-60
2023/04/26 12:57:20;;;;;;;11.50;1.97;;;;;;;;;;5068056;28;20040;-59
2023/04/26 12:59:46;;;;;;;5.47;1.77;;;;;;;;;;5065214;28;20044;-59
2023/04/26 13:02:12;;;;;;;4.93;1.73;;;;;;;;;;5062662;28;20056;-60
2023/04/26 13:04:38;;;;;;;6.37;1.70;;;;;;;;;;5067366;28;20040;-60
2023/04/26 13:07:05;;;;;;;8.67;1.70;;;;;;;;;;5058191;28;20048;-60
2023/04/26 13:09:31;;;;;;;4.90;1.73;;;;;;;;;;5067135;28;20063;-60
2023/04/26 13:11:57;;;;;;;9.13;2.00;;;;;;;;;;5067689;28;20044;-60
2023/04/26 13:14:23;;;;;;;8.60;1.60;;;;;;;;;;5066586;28;20045;-60
2023/04/26 13:16:51;;;;;;;4.40;1.60;;;;;;;;;;5066187;28;20151;-60
2023/04/26 13:19:17;;;;;;;5.77;1.70;;;;;;;;;;5052244;28;20040;-60
2023/04/26 13:21:43;;;;;;;7.67;2.03;;;;;;;;;;5067624;28;20119;-60
2023/04/26 13:24:09;;;;;;;4.90;1.60;;;;;;;;;;5065133;28;20052;-60
2023/04/26 13:26:36;;;;;;;9.00;1.93;;;;;;;;;;5067821;28;20048;-60
2023/04/26 13:29:03;;;;;;;9.73;1.90;;;;;;;;;;5067237;28;20097;-60
2023/04/26 13:31:29;;;;;;;8.30;1.80;;;;;;;;;;5065686;28;21386;-60
2023/04/26 13:33:55;;;;;;;8.37;2.03;;;;;;;;;;5065500;28;20461;-60
2023/04/26 13:36:21;;;;;;;6.27;1.90;;;;;;;;;;5064531;28;20094;-61
2023/04/26 13:38:47;;;;;;;7.97;1.97;;;;;;;;;;5070312;28;20059;-60
2023/04/26 13:41:14;;;;;;;5.83;1.50;;;;;;;;;;5069692;28;20419;-60
2023/04/26 13:43:40;;;;;;;5.67;1.77;;;;;;;;;;5070802;28;20079;-60
2023/04/26 13:46:06;;;;;;;9.43;2.30;;;;;;;;;;5070298;28;20060;-61
2023/04/26 13:48:32;;;;;;;7.20;1.70;;;;;;;;;;5060010;28;20045;-60
2023/04/26 13:50:58;;;;;;;5.87;2.27;;;;;;;;;;5059169;28;20040;-61
2023/04/26 13:53:25;;;;;;;5.97;1.90;;;;;;;;;;5053206;28;20402;-60
2023/04/26 13:55:51;;;;;;;4.77;1.90;;;;;;;;;;5051339;28;20057;-60
2023/04/26 13:58:17;;;;;;;8.73;1.90;;;;;;;;;;5067126;28;20047;-60
2023/04/26 14:00:43;;;;;;;9.93;2.00;;;;;;;;;;5068181;28;20518;-60
2023/04/26 14:03:09;;;;;;;5.47;2.00;;;;;;;;;;5054669;28;20040;-61
2023/04/26 14:05:35;;;;;;;3.87;1.53;;;;;;;;;;5061817;28;20048;-60
2023/04/26 14:08:01;;;;;;;5.07;1.70;;;;;;;;;;5054867;28;20044;-60
2023/04/26 14:10:27;;;;;;;5.50;1.40;;;;;;;;;;5058977;28;20110;-60
2023/04/26 14:12:55;;;;;;;8.73;1.70;;;;;;;;;;5068046;28;20041;-61
2023/04/26 14:15:21;;;;;;;5.37;1.43;;;;;;;;;;5069288;28;20045;-60
2023/04/26 14:17:47;;;;;;;6.17;1.90;;;;;;;;;;5070952;28;20135;-60
2023/04/26 14:20:14;;;;;;;7.73;1.70;;;;;;;;;;5070346;28;20098;-60
2023/04/26 14:22:40;;;;;;;9.57;2.00;;;;;;;;;;5070570;28;20040;-60
2023/04/26 14:25:06;;;;;;;8.07;2.13;;;;;;;;;;5066720;28;20056;-60
2023/04/26 14:27:32;;;;;;;6.57;1.70;;;;;;;;;;5069114;28;20544;-60
2023/04/26 14:29:58;;;;;;;8.23;1.73;;;;;;;;;;5070010;28;20074;-60
2023/04/26 14:32:24;;;;;;;4.40;1.40;;;;;;;;;;5070091;28;20131;-60
2023/04/26 14:34:50;;;;;;;4.53;1.43;;;;;;;;;;5068454;28;20045;-61
2023/04/26 14:37:21;;;;;;;4.23;1.60;;;;;;;;;;5070517;28;20052;-60
2023/04/26 14:39:47;;;;;;;8.43;2.10;;;;;;;;;;5067945;28;20524;-61